createdAt,value
2022-09-26T00:00:22.382Z,95249.69
2022-09-26T00:02:25.093Z,95430.69
2022-09-26T00:04:32.815Z,95248.22
2022-09-26T00:06:37.182Z,95439.56
2022-09-26T00:08:40.987Z,95040.59
2022-09-26T00:10:44.992Z,95438.75
2022-09-26T00:12:47.836Z,95441.41
2022-09-26T00:14:50.518Z,94659.03
2022-09-26T00:16:53.601Z,95246.44
2022-09-26T00:18:58.784Z,95446.19
2022-09-26T00:21:05.482Z,95447.25
2022-09-26T00:23:08.195Z,95435.44
2022-09-26T00:25:11.045Z,95444.03
2022-09-26T00:27:15.121Z,95456.00
2022-09-26T00:29:17.876Z,95442.94
2022-09-26T00:31:23.851Z,95433.53
2022-09-26T00:33:26.576Z,95435.91
2022-09-26T00:35:29.266Z,95436.44
2022-09-26T00:37:31.980Z,94453.91
2022-09-26T00:39:34.933Z,95545.00
2022-09-26T00:41:37.945Z,95418.19
2022-09-26T00:43:44.055Z,95432.44
2022-09-26T00:45:46.783Z,95427.31
2022-09-26T00:47:58.095Z,95428.13
2022-09-26T00:50:05.385Z,95431.06
2022-09-26T00:52:11.645Z,95432.13
2022-09-26T00:54:18.580Z,95429.69
2022-09-26T00:56:24.473Z,95423.25
2022-09-26T00:58:32.004Z,95416.53
2022-09-26T01:00:37.589Z,95428.41
2022-09-26T01:02:40.684Z,95406.50
2022-09-26T01:04:46.564Z,95418.25
2022-09-26T01:06:50.179Z,94771.72
2022-09-26T01:08:57.302Z,95434.34
2022-09-26T01:11:00.715Z,95542.16
2022-09-26T01:13:04.149Z,95413.06
2022-09-26T01:15:09.107Z,95333.38
2022-09-26T01:17:13.587Z,95446.97
2022-09-26T01:19:26.047Z,95042.38
2022-09-26T01:21:54.503Z,95399.94
2022-09-26T01:24:39.284Z,95410.00
2022-09-26T01:27:18.337Z,95404.38
2022-09-26T01:29:56.832Z,95399.06
2022-09-26T01:32:28.215Z,94984.09
2022-09-26T01:34:40.008Z,95411.06
2022-09-26T01:37:03.242Z,95344.22
2022-09-26T01:39:23.088Z,95394.31
2022-09-26T01:41:37.693Z,94571.56
2022-09-26T01:43:48.025Z,95407.75
2022-09-26T01:45:55.104Z,95405.06
2022-09-26T01:48:07.163Z,95405.16
2022-09-26T01:50:20.728Z,95417.50
2022-09-26T01:52:32.642Z,95409.56
2022-09-26T01:54:38.859Z,95406.34
2022-09-26T01:56:44.288Z,95380.91
2022-09-26T01:58:52.559Z,95404.50
2022-09-26T02:00:59.086Z,95085.16
2022-09-26T02:03:06.690Z,95404.50
2022-09-26T02:05:17.252Z,95260.28
2022-09-26T02:07:25.937Z,95401.84
2022-09-26T02:09:34.260Z,94891.06
2022-09-26T02:11:42.596Z,95398.38
2022-09-26T02:13:52.193Z,94740.31
2022-09-26T02:15:58.712Z,95385.97
2022-09-26T02:18:09.276Z,95382.38
2022-09-26T02:20:16.192Z,95389.50
2022-09-26T02:22:22.448Z,95382.34
2022-09-26T02:24:25.925Z,95430.69
2022-09-26T02:26:30.044Z,95375.97
2022-09-26T02:28:35.852Z,95375.47
2022-09-26T02:33:29.301Z,95365.00
2022-09-26T02:35:50.201Z,95402.88
2022-09-26T02:37:53.171Z,95172.34
2022-09-26T02:40:01.115Z,95373.41
2022-09-26T02:42:19.930Z,95372.81
2022-09-26T02:44:42.195Z,95377.03
2022-09-26T02:47:12.421Z,95372.00
2022-09-26T02:49:40.588Z,95375.16
2022-09-26T02:52:02.522Z,95373.81
2022-09-26T02:54:22.325Z,95363.63
2022-09-26T02:56:30.994Z,95224.13
2022-09-26T02:58:47.745Z,95366.28
2022-09-26T03:00:59.272Z,95368.47
2022-09-26T03:03:08.733Z,95357.16
2022-09-26T03:05:17.607Z,95396.31
2022-09-26T03:07:25.448Z,95164.56
2022-09-26T03:09:31.316Z,95365.50
2022-09-26T03:11:35.851Z,94007.69
2022-09-26T03:13:41.613Z,95352.41
2022-09-26T03:15:51.821Z,95339.00
2022-09-26T03:17:59.472Z,95355.44
2022-09-26T03:20:11.295Z,95320.63
2022-09-26T03:22:18.066Z,95332.56
2022-09-26T03:24:20.953Z,95232.97
2022-09-26T03:26:25.381Z,95336.31
2022-09-26T03:28:36.836Z,95339.69
2022-09-26T03:30:40.396Z,95329.97
2022-09-26T03:33:06.503Z,95326.34
2022-09-26T03:35:10.496Z,95326.06
2022-09-26T03:37:13.351Z,95321.28
2022-09-26T03:39:17.408Z,95326.13
2022-09-26T03:41:46.377Z,94828.28
2022-09-26T03:43:51.796Z,95321.34
2022-09-26T03:45:55.134Z,95309.84
2022-09-26T03:48:02.212Z,95308.53
2022-09-26T03:50:06.452Z,95308.50
2022-09-26T03:52:11.580Z,95304.72
2022-09-26T03:54:15.267Z,95300.97
2022-09-26T03:56:21.786Z,95291.63
2022-09-26T03:58:25.114Z,95290.81
2022-09-26T04:00:28.136Z,95231.25
2022-09-26T04:02:30.910Z,95287.34
2022-09-26T04:04:48.487Z,95295.66
2022-09-26T04:06:51.995Z,95065.47
2022-09-26T04:08:55.107Z,95282.78
2022-09-26T04:11:04.526Z,95076.81
2022-09-26T04:13:08.605Z,95302.13
2022-09-26T04:15:12.930Z,95274.19
2022-09-26T04:17:15.650Z,95165.81
2022-09-26T04:19:21.149Z,95276.59
2022-09-26T04:21:24.682Z,94833.97
2022-09-26T04:23:31.058Z,95276.88
2022-09-26T04:25:37.990Z,95284.56
2022-09-26T04:27:42.176Z,95274.13
2022-09-26T04:29:46.318Z,95168.88
2022-09-26T04:32:03.727Z,95276.59
2022-09-26T04:34:15.904Z,95272.31
2022-09-26T04:36:19.531Z,95259.69
2022-09-26T04:38:22.351Z,95151.03
2022-09-26T04:40:25.163Z,95260.47
2022-09-26T04:42:42.578Z,95258.06
2022-09-26T04:44:48.208Z,94771.19
2022-09-26T04:46:52.099Z,95199.91
2022-09-26T04:49:00.053Z,95254.84
2022-09-26T04:51:06.381Z,95255.66
2022-09-26T04:53:09.254Z,95254.84
2022-09-26T04:55:16.330Z,95249.94
2022-09-26T04:57:20.047Z,95250.47
2022-09-26T04:59:23.005Z,95258.44
2022-09-26T05:01:40.053Z,95249.31
2022-09-26T05:03:49.870Z,95247.66
2022-09-26T05:05:54.508Z,95248.09
2022-09-26T05:07:57.782Z,95244.38
2022-09-26T05:10:00.792Z,95245.00
2022-09-26T05:12:03.814Z,95247.72
2022-09-26T05:14:08.912Z,95236.97
2022-09-26T05:16:14.520Z,95248.31
2022-09-26T05:18:19.087Z,95241.06
2022-09-26T05:20:24.096Z,95167.94
2022-09-26T05:22:36.419Z,95086.75
2022-09-26T05:24:56.883Z,95243.53
2022-09-26T05:27:01.576Z,95245.16
2022-09-26T05:29:08.370Z,95248.38
2022-09-26T05:31:26.370Z,95250.00
2022-09-26T05:33:30.976Z,95244.63
2022-09-26T05:35:35.467Z,94506.81
2022-09-26T05:37:38.907Z,95234.94
2022-09-26T05:39:59.837Z,95233.03
2022-09-26T05:42:06.984Z,95233.28
2022-09-26T05:44:10.676Z,95057.81
2022-09-26T05:46:14.679Z,95222.06
2022-09-26T05:48:23.344Z,95229.56
2022-09-26T05:50:27.510Z,95238.72
2022-09-26T05:52:31.062Z,94992.34
2022-09-26T05:54:34.387Z,95232.00
2022-09-26T05:56:43.972Z,95230.66
2022-09-26T05:59:12.456Z,95251.06
2022-09-26T06:01:35.076Z,95232.00
2022-09-26T06:03:48.316Z,95240.88
2022-09-26T06:06:04.688Z,95248.94
2022-09-26T06:08:09.448Z,95234.94
2022-09-26T06:10:20.310Z,95022.34
2022-09-26T06:12:30.180Z,95237.38
2022-09-26T06:14:33.115Z,95237.38
2022-09-26T06:16:36.058Z,94736.06
2022-09-26T06:18:40.820Z,95230.38
2022-09-26T06:20:43.752Z,95234.16
2022-09-26T06:22:49.438Z,95228.78
2022-09-26T06:24:52.668Z,95226.63
2022-09-26T06:26:56.157Z,95226.34
2022-09-26T06:29:00.080Z,95220.44
2022-09-26T06:31:10.759Z,95222.06
2022-09-26T06:33:36.710Z,95214.53
2022-09-26T06:36:01.964Z,95222.31
2022-09-26T06:38:11.640Z,95220.19
2022-09-26T06:40:16.403Z,95123.69
2022-09-26T06:42:19.493Z,95209.69
2022-09-26T06:44:31.331Z,94894.78
2022-09-26T06:47:02.965Z,95194.63
2022-09-26T06:49:10.887Z,95200.00
2022-09-26T06:51:24.831Z,95198.09
2022-09-26T06:53:30.840Z,95204.53
2022-09-26T06:55:34.665Z,95203.19
2022-09-26T06:57:40.329Z,95199.69
2022-09-26T06:59:43.238Z,95199.41
2022-09-26T07:02:07.371Z,95101.16
2022-09-26T07:04:29.825Z,95195.06
2022-09-26T07:06:50.987Z,95193.97
2022-09-26T07:09:03.070Z,95195.56
2022-09-26T07:11:56.619Z,95195.25
2022-09-26T07:14:01.967Z,94850.03
2022-09-26T07:16:05.802Z,95190.63
2022-09-26T07:18:31.904Z,95182.22
2022-09-26T07:20:56.675Z,95191.38
2022-09-26T07:23:10.772Z,95180.88
2022-09-26T07:25:15.704Z,95177.66
2022-09-26T07:27:19.061Z,95172.81
2022-09-26T07:29:23.164Z,95173.22
2022-09-26T07:31:27.202Z,95168.72
2022-09-26T07:33:49.953Z,95122.97
2022-09-26T07:35:55.040Z,95165.59
2022-09-26T07:37:59.034Z,95172.03
2022-09-26T07:40:02.304Z,94788.19
2022-09-26T07:42:09.697Z,95165.50
2022-09-26T07:45:02.179Z,95161.63
2022-09-26T07:46:54.119Z,95163.81
2022-09-26T07:49:15.601Z,95154.78
2022-09-26T07:51:39.070Z,95163.06
2022-09-26T07:53:45.767Z,95156.69
2022-09-26T07:56:07.249Z,95053.00
2022-09-26T07:58:29.864Z,95161.28
2022-09-26T08:01:12.047Z,95154.28
2022-09-26T08:03:33.445Z,95148.59
2022-09-26T08:05:40.074Z,95148.25
2022-09-26T08:07:43.158Z,95145.00
2022-09-26T08:09:50.625Z,95150.03
2022-09-26T08:12:12.253Z,95136.97
2022-09-26T08:14:49.121Z,95129.50
2022-09-26T08:16:56.866Z,95148.25
2022-09-26T08:19:01.687Z,95144.13
2022-09-26T08:21:06.343Z,95149.41
2022-09-26T08:23:09.213Z,95149.47
2022-09-26T08:25:12.751Z,95150.97
2022-09-26T08:27:32.388Z,94809.97
2022-09-26T08:29:35.615Z,95147.28
2022-09-26T08:31:40.458Z,95140.56
2022-09-26T08:33:44.246Z,95159.53
2022-09-26T08:35:48.658Z,95144.13
2022-09-26T08:38:12.572Z,93992.88
2022-09-26T08:40:15.416Z,95141.56
2022-09-26T08:42:50.568Z,95136.94
2022-09-26T08:45:38.125Z,94756.91
2022-09-26T08:48:07.377Z,95158.81
2022-09-26T08:50:23.620Z,95140.84
2022-09-26T08:52:34.287Z,95139.56
2022-09-26T08:54:40.923Z,95148.94
2022-09-26T08:56:48.718Z,95143.91
2022-09-26T08:58:55.549Z,95135.13
2022-09-26T09:01:10.403Z,95138.19
2022-09-26T09:03:36.989Z,95130.38
2022-09-26T09:05:46.306Z,95136.00
2022-09-26T09:07:51.860Z,95135.50
2022-09-26T09:10:00.166Z,95007.44
2022-09-26T09:12:24.397Z,95123.41
2022-09-26T09:15:24.130Z,94744.78
2022-09-26T09:17:48.481Z,94674.31
2022-09-26T09:20:14.573Z,95126.31
2022-09-26T09:23:14.725Z,95123.31
2022-09-26T09:25:25.883Z,95118.25
2022-09-26T09:28:02.498Z,95119.84
2022-09-26T09:30:16.879Z,95119.41
2022-09-26T09:32:42.073Z,95123.47
2022-09-26T09:35:14.299Z,95129.56
2022-09-26T09:37:51.972Z,95113.19
2022-09-26T09:40:28.633Z,94921.25
2022-09-26T09:42:40.337Z,95110.59
2022-09-26T09:44:48.087Z,95100.25
2022-09-26T09:46:52.329Z,95109.25
2022-09-26T09:48:59.249Z,95126.56
2022-09-26T09:51:18.814Z,95097.66
2022-09-26T09:53:37.045Z,94964.16
2022-09-26T09:55:49.643Z,95086.06
2022-09-26T09:58:13.845Z,95090.03
2022-09-26T10:00:18.763Z,95100.19
2022-09-26T10:02:40.512Z,95088.53
2022-09-26T10:05:06.218Z,95082.44
2022-09-26T10:07:10.932Z,95079.41
2022-09-26T10:09:38.983Z,95071.28
2022-09-26T10:12:01.697Z,95070.94
2022-09-26T10:14:42.584Z,95065.25
2022-09-26T10:17:18.787Z,95060.25
2022-09-26T10:19:45.112Z,95067.91
2022-09-26T10:21:50.612Z,94950.31
2022-09-26T10:23:55.508Z,95067.91
2022-09-26T10:26:31.076Z,94861.88
2022-09-26T10:28:37.760Z,95062.03
2022-09-26T10:30:50.046Z,95047.34
2022-09-26T10:33:00.226Z,94850.03
2022-09-26T10:35:29.654Z,95050.38
2022-09-26T10:37:32.688Z,95056.13
2022-09-26T10:40:15.249Z,95040.53
2022-09-26T10:42:21.196Z,95055.06
2022-09-26T10:44:29.128Z,95057.34
2022-09-26T10:46:59.218Z,95070.63
2022-09-26T10:49:26.651Z,95060.56
2022-09-26T10:51:54.538Z,95063.47
2022-09-26T10:54:05.205Z,94883.75
2022-09-26T10:56:12.896Z,94955.44
2022-09-26T10:58:19.581Z,95052.19
2022-09-26T11:00:37.779Z,94999.66
2022-09-26T11:02:47.443Z,94229.88
2022-09-26T11:05:15.038Z,95031.59
2022-09-26T11:07:41.347Z,95035.41
2022-09-26T11:10:02.231Z,95030.31
2022-09-26T11:12:29.188Z,95040.34
2022-09-26T11:14:45.781Z,94691.81
2022-09-26T11:16:53.144Z,95035.56
2022-09-26T11:19:02.971Z,94897.63
2022-09-26T11:21:28.182Z,95008.56
2022-09-26T11:23:39.601Z,95031.97
2022-09-26T11:25:57.831Z,95020.47
2022-09-26T11:28:09.547Z,95012.88
2022-09-26T11:30:50.279Z,95012.59
2022-09-26T11:33:00.954Z,95028.75
2022-09-26T11:35:53.238Z,95009.66
2022-09-26T11:38:11.100Z,94996.72
2022-09-26T11:40:29.066Z,94622.41
2022-09-26T11:42:45.015Z,94997.63
2022-09-26T11:45:08.019Z,94998.13
2022-09-26T11:48:03.003Z,94998.75
2022-09-26T11:50:39.626Z,94989.22
2022-09-26T11:53:06.259Z,95094.47
2022-09-26T11:55:24.281Z,94978.78
2022-09-26T11:57:39.020Z,94988.06
2022-09-26T12:00:07.685Z,95008.16
2022-09-26T12:02:37.249Z,94804.75
2022-09-26T12:04:55.776Z,94973.06
2022-09-26T12:07:08.222Z,94956.72
2022-09-26T12:09:24.677Z,94962.16
2022-09-26T12:11:37.288Z,94959.56
2022-09-26T12:13:48.345Z,94959.84
2022-09-26T12:15:59.391Z,94592.88
2022-09-26T12:18:13.911Z,94945.63
2022-09-26T12:20:27.636Z,94963.06
2022-09-26T12:22:38.735Z,94951.53
2022-09-26T12:24:49.641Z,94972.94
2022-09-26T12:27:00.197Z,94777.63
2022-09-26T12:29:24.282Z,94695.16
2022-09-26T12:31:42.190Z,94291.69
2022-09-26T12:34:17.077Z,94975.72
2022-09-26T12:36:40.523Z,94983.22
2022-09-26T12:38:58.053Z,94963.63
2022-09-26T12:41:25.206Z,94961.75
2022-09-26T12:44:00.015Z,94952.00
2022-09-26T12:46:28.245Z,94942.63
2022-09-26T12:49:04.222Z,94942.56
2022-09-26T12:51:19.948Z,94931.13
2022-09-26T12:53:38.216Z,94930.06
2022-09-26T12:55:49.027Z,94945.50
2022-09-26T12:58:05.964Z,94932.22
2022-09-26T13:00:20.151Z,94918.59
2022-09-26T13:02:47.115Z,94818.63
2022-09-26T13:05:18.825Z,94926.47
2022-09-26T13:07:42.206Z,94913.06
2022-09-26T13:10:15.445Z,94908.44
2022-09-26T13:12:35.472Z,94902.28
2022-09-26T13:14:57.083Z,94370.63
2022-09-26T13:17:10.860Z,94896.56
2022-09-26T13:19:24.056Z,94889.28
2022-09-26T13:21:45.460Z,94894.00
2022-09-26T13:23:54.020Z,93597.59
2022-09-26T13:26:00.808Z,94889.75
2022-09-26T13:28:09.591Z,94711.75
2022-09-26T13:30:17.019Z,94883.88
2022-09-26T13:32:24.665Z,94856.13
2022-09-26T13:34:32.216Z,94897.91
2022-09-26T13:36:41.767Z,94528.56
2022-09-26T13:38:53.036Z,94898.97
2022-09-26T13:41:05.251Z,93849.47
2022-09-26T13:43:21.655Z,94625.53
2022-09-26T13:45:36.320Z,94868.72
2022-09-26T13:47:59.926Z,94740.84
2022-09-26T13:50:18.366Z,94698.75
2022-09-26T13:52:44.604Z,94870.94
2022-09-26T13:55:00.306Z,94646.00
2022-09-26T13:57:32.678Z,94846.47
2022-09-26T13:59:54.369Z,95013.03
2022-09-26T14:02:20.445Z,94846.03
2022-09-26T14:04:34.588Z,94389.69
2022-09-26T14:06:37.524Z,94770.09
2022-09-26T14:09:25.107Z,94839.00
2022-09-26T14:11:46.044Z,94839.31
2022-09-26T14:13:49.952Z,94840.94
2022-09-26T14:16:06.353Z,94834.00
2022-09-26T14:18:30.293Z,94836.72
2022-09-26T14:20:40.514Z,94840.31
2022-09-26T14:22:51.669Z,94831.00
2022-09-26T14:24:57.417Z,93592.75
2022-09-26T14:27:39.412Z,94160.78
2022-09-26T14:29:50.507Z,94935.78
2022-09-26T14:32:01.988Z,94821.69
2022-09-26T14:34:14.506Z,94816.09
2022-09-26T14:36:24.387Z,94812.78
2022-09-26T14:38:27.180Z,94821.09
2022-09-26T14:40:34.309Z,94807.50
2022-09-26T14:42:40.812Z,94800.81
2022-09-26T14:44:52.260Z,94669.38
2022-09-26T14:46:56.986Z,94783.88
2022-09-26T14:49:03.244Z,94781.09
2022-09-26T14:51:28.498Z,94790.97
2022-09-26T14:53:39.582Z,94783.06
2022-09-26T14:55:57.834Z,94628.63
2022-09-26T14:58:32.097Z,94782.28
2022-09-26T15:00:39.404Z,93709.44
2022-09-26T15:02:44.638Z,94637.38
2022-09-26T15:04:51.546Z,94779.56
2022-09-26T15:06:57.862Z,94810.16
2022-09-26T15:09:10.400Z,94774.28
2022-09-26T15:11:29.168Z,94766.66
2022-09-26T15:13:37.945Z,94782.06
2022-09-26T15:15:49.572Z,94578.19
2022-09-26T15:17:57.471Z,94774.50
2022-09-26T15:20:03.817Z,94774.75
2022-09-26T15:22:13.459Z,94739.47
2022-09-26T15:24:29.554Z,94840.47
2022-09-26T15:26:37.081Z,94598.63
2022-09-26T15:28:40.330Z,94758.25
2022-09-26T15:30:45.138Z,94550.47
2022-09-26T15:32:53.134Z,94758.72
2022-09-26T15:34:57.145Z,94760.41
2022-09-26T15:37:02.311Z,94767.19
2022-09-26T15:39:35.545Z,94752.88
2022-09-26T15:42:03.087Z,94752.31
2022-09-26T15:44:09.950Z,94747.13
2022-09-26T15:46:23.493Z,94754.72
2022-09-26T15:48:31.035Z,94758.31
2022-09-26T15:50:41.453Z,94457.78
2022-09-26T15:52:50.435Z,94433.94
2022-09-26T15:54:54.640Z,94674.03
2022-09-26T15:57:03.006Z,94725.59
2022-09-26T15:59:12.169Z,94731.00
2022-09-26T16:01:17.543Z,94726.38
2022-09-26T16:03:37.133Z,94717.81
2022-09-26T16:05:40.014Z,94716.38
2022-09-26T16:07:49.624Z,94471.78
2022-09-26T16:09:52.790Z,94652.72
2022-09-26T16:11:58.794Z,94715.56
2022-09-26T16:14:03.429Z,94714.47
2022-09-26T16:16:09.459Z,94703.47
2022-09-26T16:18:26.437Z,94700.06
2022-09-26T16:20:31.134Z,94567.75
2022-09-26T16:22:44.617Z,94516.94
2022-09-26T16:24:47.598Z,94700.06
2022-09-26T16:26:53.641Z,94696.69
2022-09-26T16:28:57.936Z,94697.47
2022-09-26T16:31:16.053Z,94702.00
2022-09-26T16:33:31.124Z,94691.81
2022-09-26T16:35:35.966Z,94691.66
2022-09-26T16:37:38.980Z,94685.22
2022-09-26T16:39:42.323Z,94694.00
2022-09-26T16:42:01.325Z,94317.72
2022-09-26T16:44:10.498Z,94582.16
2022-09-26T16:46:18.358Z,94678.97
2022-09-26T16:48:39.317Z,94595.63
2022-09-26T16:50:42.433Z,94664.03
2022-09-26T16:52:45.927Z,94652.16
2022-09-26T16:54:48.966Z,94659.25
2022-09-26T16:56:52.712Z,94661.13
2022-09-26T16:58:58.610Z,94662.66
2022-09-26T17:01:19.080Z,94560.69
2022-09-26T17:03:26.657Z,94651.34
2022-09-26T17:05:29.649Z,94664.84
2022-09-26T17:07:32.471Z,94661.00
2022-09-26T17:09:35.327Z,94655.25
2022-09-26T17:11:38.178Z,94649.13
2022-09-26T17:13:42.455Z,94445.09
2022-09-26T17:15:48.541Z,94677.66
2022-09-26T17:17:54.178Z,94434.94
2022-09-26T17:19:59.812Z,94642.63
2022-09-26T17:22:02.688Z,94507.22
2022-09-26T17:24:07.199Z,94637.63
2022-09-26T17:26:18.100Z,94175.22
2022-09-26T17:28:27.276Z,94636.81
2022-09-26T17:30:30.173Z,94623.94
2022-09-26T17:32:35.788Z,94364.63
2022-09-26T17:34:38.719Z,94636.41
2022-09-26T17:36:47.403Z,94623.81
2022-09-26T17:38:50.610Z,94197.47
2022-09-26T17:40:53.566Z,94626.31
2022-09-26T17:42:59.222Z,94520.88
2022-09-26T17:45:02.067Z,94493.53
2022-09-26T17:47:07.189Z,94604.84
2022-09-26T17:49:16.777Z,94460.72
2022-09-26T17:51:21.711Z,94605.53
2022-09-26T17:53:28.123Z,94604.44
2022-09-26T17:55:32.033Z,93358.44
2022-09-26T17:57:40.822Z,94592.25
2022-09-26T17:59:44.842Z,94592.44
2022-09-26T18:01:52.349Z,94594.47
2022-09-26T18:03:59.765Z,94577.88
2022-09-26T18:06:03.290Z,94094.13
2022-09-26T18:08:15.195Z,94579.19
2022-09-26T18:10:23.754Z,94080.03
2022-09-26T18:12:26.851Z,93904.09
2022-09-26T18:14:32.103Z,94381.97
2022-09-26T18:16:35.242Z,94433.97
2022-09-26T18:18:38.112Z,94556.34
2022-09-26T18:20:41.995Z,94299.91
2022-09-26T18:22:46.994Z,94556.84
2022-09-26T18:24:52.734Z,94307.72
2022-09-26T18:27:03.633Z,93764.34
2022-09-26T18:29:08.135Z,94351.00
2022-09-26T18:31:12.376Z,94538.94
2022-09-26T18:33:16.670Z,94501.28
2022-09-26T18:35:24.066Z,94306.59
2022-09-26T18:37:27.209Z,94538.34
2022-09-26T18:39:30.576Z,94535.44
2022-09-26T18:41:35.267Z,94537.25
2022-09-26T18:43:42.308Z,94370.38
2022-09-26T18:45:45.280Z,94103.00
2022-09-26T18:47:48.350Z,94274.56
2022-09-26T18:49:51.258Z,94097.06
2022-09-26T18:51:54.251Z,94528.25
2022-09-26T18:53:57.110Z,94525.25
2022-09-26T18:56:17.105Z,94520.66
2022-09-26T18:58:25.222Z,94527.56
2022-09-26T19:00:29.646Z,94523.78
2022-09-26T19:02:38.261Z,94207.13
2022-09-26T19:04:41.298Z,94526.66
2022-09-26T19:06:46.917Z,94459.31
2022-09-26T19:08:51.602Z,94345.19
2022-09-26T19:10:55.199Z,94188.19
2022-09-26T19:12:59.035Z,94519.25
2022-09-26T19:15:01.816Z,94513.97
2022-09-26T19:17:06.056Z,94538.47
2022-09-26T19:19:08.910Z,94518.72
2022-09-26T19:21:19.963Z,93913.44
2022-09-26T19:23:23.201Z,94524.53
2022-09-26T19:25:26.512Z,94519.63
2022-09-26T19:27:33.144Z,93925.22
2022-09-26T19:29:39.601Z,94258.13
2022-09-26T19:31:43.605Z,94513.72
2022-09-26T19:33:49.898Z,94364.78
2022-09-26T19:35:53.077Z,94508.94
2022-09-26T19:37:56.135Z,94153.31
2022-09-26T19:39:59.000Z,94401.03
2022-09-26T19:42:06.551Z,93599.03
2022-09-26T19:44:09.524Z,94117.28
2022-09-26T19:46:18.385Z,94353.44
2022-09-26T19:48:23.964Z,94499.09
2022-09-26T19:50:29.087Z,94495.31
2022-09-26T19:52:32.525Z,94129.09
2022-09-26T19:54:35.938Z,94492.69
2022-09-26T19:56:38.748Z,93521.38
2022-09-26T19:58:41.597Z,94506.16
2022-09-26T20:00:44.798Z,94511.53
2022-09-26T20:02:51.327Z,94328.09
2022-09-26T20:04:54.211Z,94308.16
2022-09-26T20:06:58.456Z,94497.44
2022-09-26T20:09:02.011Z,94010.09
2022-09-26T20:11:05.135Z,94505.53
2022-09-26T20:13:08.012Z,94304.38
2022-09-26T20:15:12.969Z,94510.41
2022-09-26T20:17:22.075Z,93210.28
2022-09-26T20:19:37.559Z,94500.22
2022-09-26T20:21:40.354Z,94504.44
2022-09-26T20:23:45.933Z,94495.56
2022-09-26T20:25:48.938Z,94484.75
2022-09-26T20:27:55.150Z,94022.19
2022-09-26T20:30:16.797Z,94426.16
2022-09-26T20:32:20.172Z,94490.63
2022-09-26T20:34:23.049Z,94468.53
2022-09-26T20:36:30.372Z,94019.34
2022-09-26T20:38:38.734Z,94337.84
2022-09-26T20:40:42.990Z,94489.00
2022-09-26T20:42:48.561Z,94487.69
2022-09-26T20:44:51.438Z,94489.28
2022-09-26T20:46:58.933Z,94485.22
2022-09-26T20:49:04.271Z,94483.63
2022-09-26T20:51:10.437Z,94500.63
2022-09-26T20:53:17.794Z,94481.81
2022-09-26T20:55:21.080Z,94191.75
2022-09-26T20:57:26.262Z,94475.34
2022-09-26T20:59:29.346Z,94286.63
2022-09-26T21:01:32.212Z,94257.28
2022-09-26T21:03:35.125Z,94663.19
2022-09-26T21:05:38.515Z,94461.16
2022-09-26T21:07:41.618Z,94464.91
2022-09-26T21:09:44.969Z,94464.44
2022-09-26T21:11:49.110Z,94278.16
2022-09-26T21:13:53.276Z,94450.28
2022-09-26T21:15:56.055Z,94348.03
2022-09-26T21:17:59.662Z,93997.69
2022-09-26T21:20:03.168Z,94442.25
2022-09-26T21:22:41.818Z,94450.50
2022-09-26T21:24:49.095Z,94240.50
2022-09-26T21:26:51.965Z,94446.84
2022-09-26T21:28:56.868Z,94437.00
2022-09-26T21:31:04.011Z,94462.25
2022-09-26T21:33:07.049Z,94431.31
2022-09-26T21:35:10.865Z,94443.66
2022-09-26T21:37:13.701Z,93671.00
2022-09-26T21:39:18.881Z,94445.59
2022-09-26T21:41:22.051Z,94441.56
2022-09-26T21:43:29.091Z,94431.88
2022-09-26T21:45:33.803Z,94081.84
2022-09-26T21:47:37.534Z,94427.53
2022-09-26T21:49:40.592Z,94170.81
2022-09-26T21:51:45.267Z,94170.72
2022-09-26T21:53:54.187Z,94418.03
2022-09-26T21:56:05.104Z,94150.06
2022-09-26T21:58:13.713Z,94273.56
2022-09-26T22:00:16.883Z,94417.16
2022-09-26T22:02:21.553Z,94293.97
2022-09-26T22:04:24.466Z,94395.88
2022-09-26T22:06:27.339Z,94324.19
2022-09-26T22:08:30.968Z,94378.78
2022-09-26T22:10:34.032Z,93740.19
2022-09-26T22:12:36.928Z,94421.41
2022-09-26T22:14:39.903Z,94361.69
2022-09-26T22:16:42.882Z,94232.56
2022-09-26T22:18:47.211Z,94110.66
2022-09-26T22:20:55.531Z,94015.72
2022-09-26T22:22:58.356Z,93848.59
2022-09-26T22:25:04.037Z,94351.31
2022-09-26T22:27:06.891Z,94077.53
2022-09-26T22:29:09.827Z,93951.56
2022-09-26T22:31:13.662Z,93982.97
2022-09-26T22:33:18.637Z,94085.13
2022-09-26T22:35:23.056Z,94088.31
2022-09-26T22:37:26.122Z,94359.69
2022-09-26T22:39:29.197Z,94348.69
2022-09-26T22:41:32.060Z,93623.59
2022-09-26T22:43:35.923Z,94345.53
2022-09-26T22:45:38.732Z,94335.53
2022-09-26T22:47:41.812Z,94334.41
2022-09-26T22:49:44.657Z,94326.88
2022-09-26T22:51:48.869Z,94201.53
2022-09-26T22:53:51.660Z,94317.97
2022-09-26T22:55:55.717Z,94307.00
2022-09-26T22:57:58.622Z,93914.78
2022-09-26T23:00:01.905Z,94296.72
2022-09-26T23:02:04.945Z,94039.06
2022-09-26T23:04:07.782Z,94277.53
2022-09-26T23:06:11.220Z,94046.41
2022-09-26T23:08:15.419Z,94281.03
2022-09-26T23:10:22.052Z,94268.34
2022-09-26T23:12:25.022Z,94281.03
2022-09-26T23:14:27.804Z,94264.91
2022-09-26T23:16:30.693Z,94265.22
2022-09-26T23:18:34.668Z,94163.34
2022-09-26T23:20:39.164Z,94051.47
2022-09-26T23:22:42.031Z,94262.53
2022-09-26T23:24:46.333Z,93547.44
2022-09-26T23:26:49.181Z,94253.69
2022-09-26T23:28:53.754Z,94281.09
2022-09-26T23:31:04.341Z,94248.88
2022-09-26T23:33:07.791Z,94256.66
2022-09-26T23:35:10.726Z,94255.63
2022-09-26T23:37:13.677Z,94106.97
2022-09-26T23:39:16.724Z,94229.63
2022-09-26T23:41:21.260Z,94237.25
2022-09-26T23:43:24.273Z,94233.03
2022-09-26T23:45:27.798Z,94331.91
2022-09-26T23:47:31.001Z,94231.84
2022-09-26T23:49:33.831Z,93810.78
2022-09-26T23:51:36.620Z,92701.66
2022-09-26T23:53:39.477Z,94227.06
2022-09-26T23:55:42.485Z,94224.03
2022-09-26T23:57:46.643Z,94211.13
2022-09-26T23:59:49.564Z,94222.88
